createdAt,value
2018-07-16T00:00:17.506Z,6.90
2018-07-16T00:02:45.617Z,6.53
2018-07-16T00:05:13.875Z,6.57
2018-07-16T00:07:42.042Z,6.60
2018-07-16T00:10:10.256Z,6.03
2018-07-16T00:12:38.526Z,7.00
2018-07-16T00:15:06.826Z,6.53
2018-07-16T00:17:35.178Z,7.20
2018-07-16T00:20:03.597Z,6.20
2018-07-16T00:22:31.891Z,6.47
2018-07-16T00:25:00.008Z,6.60
2018-07-16T00:27:28.123Z,6.93
2018-07-16T00:29:56.235Z,6.90
2018-07-16T00:32:24.340Z,6.80
2018-07-16T00:34:52.429Z,5.93
2018-07-16T00:37:20.519Z,6.50
2018-07-16T00:39:48.614Z,6.47
2018-07-16T00:42:16.753Z,6.33
2018-07-16T00:44:44.932Z,6.20
2018-07-16T00:47:13.180Z,5.73
2018-07-16T00:49:41.424Z,6.27
2018-07-16T00:52:09.561Z,6.40
2018-07-16T00:54:37.690Z,5.93
2018-07-16T00:57:06.050Z,6.20
2018-07-16T00:59:34.250Z,6.27
2018-07-16T01:02:02.386Z,6.00
2018-07-16T01:04:30.490Z,6.20
2018-07-16T01:06:58.615Z,7.23
2018-07-16T01:09:26.763Z,6.27
2018-07-16T01:11:54.870Z,6.23
2018-07-16T01:14:22.974Z,6.97
2018-07-16T01:16:51.086Z,7.03
2018-07-16T01:19:19.184Z,6.93
2018-07-16T01:21:47.271Z,7.40
2018-07-16T01:24:15.434Z,8.17
2018-07-16T01:26:43.525Z,8.10
2018-07-16T01:29:11.665Z,6.90
2018-07-16T01:31:39.782Z,7.17
2018-07-16T01:34:07.909Z,7.77
2018-07-16T01:36:41.963Z,7.13
2018-07-16T01:39:10.085Z,6.90
2018-07-16T01:41:38.196Z,6.40
2018-07-16T01:44:06.302Z,6.70
2018-07-16T01:46:34.406Z,6.60
2018-07-16T01:49:02.603Z,7.03
2018-07-16T01:51:30.752Z,6.47
2018-07-16T01:53:58.878Z,7.17
2018-07-16T01:56:27.225Z,7.10
2018-07-16T01:58:55.380Z,6.00
2018-07-16T02:01:23.610Z,6.70
2018-07-16T02:03:51.719Z,7.73
2018-07-16T02:06:19.837Z,6.93
2018-07-16T02:08:48.767Z,7.20
2018-07-16T02:11:16.906Z,6.77
2018-07-16T02:13:45.020Z,7.37
2018-07-16T02:16:13.119Z,7.50
2018-07-16T02:18:41.249Z,7.30
2018-07-16T02:21:09.366Z,7.00
2018-07-16T02:23:37.469Z,7.00
2018-07-16T02:26:05.580Z,6.27
2018-07-16T02:28:33.693Z,7.20
2018-07-16T02:31:01.854Z,7.00
2018-07-16T02:33:29.951Z,6.40
2018-07-16T02:35:58.076Z,7.03
2018-07-16T02:38:26.314Z,7.60
2018-07-16T02:40:54.459Z,7.30
2018-07-16T02:43:22.627Z,7.27
2018-07-16T02:45:50.735Z,7.93
2018-07-16T02:48:18.827Z,7.50
2018-07-16T02:50:46.947Z,7.27
2018-07-16T02:53:15.046Z,7.83
2018-07-16T02:55:43.180Z,8.07
2018-07-16T02:58:11.286Z,7.20
2018-07-16T03:00:39.395Z,7.13
2018-07-16T03:03:07.501Z,8.40
2018-07-16T03:05:35.600Z,7.70
2018-07-16T03:08:03.751Z,8.23
2018-07-16T03:10:31.866Z,7.43
2018-07-16T03:12:59.990Z,7.90
2018-07-16T03:15:28.123Z,7.40
2018-07-16T03:17:56.393Z,8.13
2018-07-16T03:20:24.445Z,8.10
2018-07-16T03:22:52.587Z,7.53
2018-07-16T03:25:20.682Z,7.93
2018-07-16T03:27:48.773Z,7.77
2018-07-16T03:30:16.886Z,7.43
2018-07-16T03:32:45.008Z,8.17
2018-07-16T03:35:13.124Z,8.30
2018-07-16T03:37:41.222Z,7.93
2018-07-16T03:40:09.339Z,8.13
2018-07-16T03:42:37.435Z,8.97
2018-07-16T03:45:05.809Z,7.53
2018-07-16T03:47:33.901Z,8.50
2018-07-16T03:50:02.006Z,9.03
2018-07-16T03:52:30.179Z,7.83
2018-07-16T03:54:58.328Z,7.87
2018-07-16T03:57:26.479Z,8.40
2018-07-16T03:59:54.633Z,9.30
2018-07-16T04:02:22.745Z,8.60
2018-07-16T04:04:50.849Z,8.40
2018-07-16T04:07:18.950Z,8.50
2018-07-16T04:09:47.065Z,8.50
2018-07-16T04:12:15.182Z,8.57
2018-07-16T04:14:43.276Z,8.70
2018-07-16T04:17:11.378Z,9.17
2018-07-16T04:19:39.478Z,8.50
2018-07-16T04:22:07.660Z,9.07
2018-07-16T04:24:35.771Z,9.20
2018-07-16T04:27:03.867Z,9.00
2018-07-16T04:29:32.028Z,8.40
2018-07-16T04:32:00.159Z,8.70
2018-07-16T04:34:28.269Z,8.40
2018-07-16T04:37:03.091Z,8.43
2018-07-16T04:39:31.230Z,8.37
2018-07-16T04:41:59.370Z,8.83
2018-07-16T04:44:27.509Z,9.00
2018-07-16T04:46:55.652Z,9.00
2018-07-16T04:49:23.878Z,14.10
2018-07-16T04:51:51.988Z,23.80
2018-07-16T04:54:20.102Z,10.60
2018-07-16T04:56:48.230Z,9.37
2018-07-16T04:59:16.347Z,8.30
2018-07-16T05:01:44.458Z,9.60
2018-07-16T05:04:12.582Z,9.30
2018-07-16T05:06:40.705Z,9.30
2018-07-16T05:09:08.829Z,8.60
2018-07-16T05:11:36.964Z,8.37
2018-07-16T05:14:06.073Z,9.60
2018-07-16T05:16:34.210Z,9.50
2018-07-16T05:19:02.316Z,8.90
2018-07-16T05:21:30.476Z,9.20
2018-07-16T05:23:58.667Z,9.57
2018-07-16T05:26:26.766Z,10.17
2018-07-16T05:28:54.913Z,9.57
2018-07-16T05:31:23.070Z,9.60
2018-07-16T05:33:51.146Z,10.00
2018-07-16T05:36:19.299Z,9.70
2018-07-16T05:38:47.391Z,9.23
2018-07-16T05:41:15.505Z,9.70
2018-07-16T05:43:43.638Z,10.40
2018-07-16T05:46:11.747Z,10.93
2018-07-16T05:48:39.937Z,10.23
2018-07-16T05:51:08.055Z,10.33
2018-07-16T05:53:36.927Z,9.70
2018-07-16T05:56:05.050Z,10.93
2018-07-16T05:58:33.159Z,10.30
2018-07-16T06:01:01.350Z,10.40
2018-07-16T06:03:36.176Z,10.30
2018-07-16T06:06:04.270Z,11.90
2018-07-16T06:08:32.545Z,9.70
2018-07-16T06:11:00.702Z,9.53
2018-07-16T06:13:28.841Z,9.80
2018-07-16T06:15:56.933Z,9.10
2018-07-16T06:18:25.049Z,11.87
2018-07-16T06:20:53.141Z,9.83
2018-07-16T06:23:21.227Z,9.00
2018-07-16T06:25:49.314Z,9.40
2018-07-16T06:28:17.402Z,8.80
2018-07-16T06:30:45.505Z,8.60
2018-07-16T06:33:13.622Z,8.57
2018-07-16T06:35:41.713Z,8.80
2018-07-16T06:38:09.813Z,16.47
2018-07-16T06:40:38.045Z,9.90
2018-07-16T06:43:06.033Z,9.40
2018-07-16T06:45:34.166Z,9.40
2018-07-16T06:48:02.262Z,8.60
2018-07-16T06:50:30.356Z,7.40
2018-07-16T06:52:58.468Z,7.57
2018-07-16T06:55:26.582Z,7.57
2018-07-16T06:57:54.689Z,6.73
2018-07-16T07:00:22.786Z,7.10
2018-07-16T07:02:50.870Z,7.20
2018-07-16T07:05:18.966Z,6.43
2018-07-16T07:07:47.120Z,6.80
2018-07-16T07:10:15.241Z,6.60
2018-07-16T07:12:43.366Z,6.90
2018-07-16T07:15:11.478Z,7.07
2018-07-16T07:17:39.616Z,6.60
2018-07-16T07:20:08.946Z,6.50
2018-07-16T07:22:37.075Z,6.47
2018-07-16T07:25:05.261Z,6.83
2018-07-16T07:27:33.368Z,7.07
2018-07-16T07:30:01.470Z,6.70
2018-07-16T07:32:29.785Z,6.47
2018-07-16T07:34:57.906Z,6.20
2018-07-16T07:37:25.978Z,6.87
2018-07-16T07:39:54.115Z,6.00
2018-07-16T07:42:22.282Z,6.47
2018-07-16T07:44:50.459Z,5.90
2018-07-16T07:47:18.562Z,6.43
2018-07-16T07:49:46.658Z,6.80
2018-07-16T07:52:14.734Z,6.70
2018-07-16T07:54:43.020Z,6.47
2018-07-16T07:57:10.956Z,6.90
2018-07-16T07:59:39.070Z,6.80
2018-07-16T08:02:07.207Z,7.90
2018-07-16T08:04:35.319Z,8.37
2018-07-16T08:07:08.598Z,6.60
2018-07-16T08:09:36.749Z,6.40
2018-07-16T08:12:04.859Z,6.20
2018-07-16T08:14:33.010Z,6.57
2018-07-16T08:17:01.101Z,6.37
2018-07-16T08:19:29.246Z,6.40
2018-07-16T08:21:57.385Z,6.07
2018-07-16T08:24:25.555Z,6.70
2018-07-16T08:26:53.655Z,6.80
2018-07-16T08:29:21.787Z,7.30
2018-07-16T08:31:49.902Z,6.30
2018-07-16T08:34:18.000Z,6.10
2018-07-16T08:36:46.114Z,6.33
2018-07-16T08:39:14.309Z,5.63
2018-07-16T08:41:42.349Z,5.37
2018-07-16T08:44:10.449Z,7.00
2018-07-16T08:46:38.608Z,6.67
2018-07-16T08:49:06.694Z,6.20
2018-07-16T08:51:34.838Z,6.17
2018-07-16T08:54:02.959Z,6.00
2018-07-16T08:56:31.096Z,5.80
2018-07-16T08:58:59.279Z,5.37
2018-07-16T09:01:27.392Z,5.60
2018-07-16T09:03:55.602Z,5.80
2018-07-16T09:06:23.801Z,5.30
2018-07-16T09:08:51.874Z,4.93
2018-07-16T09:11:20.023Z,4.67
2018-07-16T09:13:48.088Z,5.27
2018-07-16T09:16:16.186Z,5.67
2018-07-16T09:18:44.292Z,4.77
2018-07-16T09:21:12.399Z,5.20
2018-07-16T09:23:40.523Z,5.73
2018-07-16T09:26:08.623Z,5.60
2018-07-16T09:28:36.735Z,5.47
2018-07-16T09:31:04.879Z,5.90
2018-07-16T09:33:32.979Z,5.50
2018-07-16T09:36:01.098Z,5.87
2018-07-16T09:38:29.232Z,10.80
2018-07-16T09:40:57.434Z,6.63
2018-07-16T09:43:25.566Z,6.10
2018-07-16T09:45:53.711Z,5.30
2018-07-16T09:48:21.831Z,5.40
2018-07-16T09:50:49.977Z,4.70
2018-07-16T09:53:18.098Z,4.80
2018-07-16T09:55:46.241Z,4.70
2018-07-16T09:58:14.423Z,5.47
2018-07-16T10:00:47.889Z,5.27
2018-07-16T10:03:16.005Z,4.93
2018-07-16T10:05:44.131Z,5.40
2018-07-16T10:08:12.283Z,5.00
2018-07-16T10:10:40.707Z,5.00
2018-07-16T10:13:08.831Z,4.87
2018-07-16T10:15:36.974Z,4.90
2018-07-16T10:18:05.114Z,4.90
2018-07-16T10:20:33.373Z,4.83
2018-07-16T10:23:01.406Z,4.23
2018-07-16T10:25:29.524Z,3.70
2018-07-16T10:27:57.663Z,4.20
2018-07-16T10:30:25.786Z,4.60
2018-07-16T10:32:53.944Z,5.30
2018-07-16T10:35:22.117Z,5.40
2018-07-16T10:37:50.257Z,5.03
2018-07-16T10:40:18.372Z,4.40
2018-07-16T10:42:46.547Z,4.77
2018-07-16T10:45:14.931Z,6.03
2018-07-16T10:47:43.066Z,4.87
2018-07-16T10:50:11.208Z,4.67
2018-07-16T10:52:39.347Z,4.80
2018-07-16T10:55:07.485Z,4.23
2018-07-16T10:57:35.629Z,5.20
2018-07-16T11:00:04.187Z,5.17
2018-07-16T11:02:32.303Z,5.47
2018-07-16T11:05:00.424Z,5.07
2018-07-16T11:07:28.529Z,5.20
2018-07-16T11:09:56.666Z,6.07
2018-07-16T11:12:24.793Z,6.00
2018-07-16T11:14:52.925Z,5.67
2018-07-16T11:17:21.376Z,5.70
2018-07-16T11:19:49.520Z,5.70
2018-07-16T11:22:17.796Z,5.90
2018-07-16T11:24:46.169Z,5.37
2018-07-16T11:27:14.401Z,6.00
2018-07-16T11:29:42.722Z,5.33
2018-07-16T11:32:11.192Z,5.50
2018-07-16T11:34:39.536Z,4.70
2018-07-16T11:37:07.864Z,5.30
2018-07-16T11:39:36.022Z,4.47
2018-07-16T11:42:04.144Z,5.10
2018-07-16T11:44:32.264Z,7.47
2018-07-16T11:47:00.374Z,6.10
2018-07-16T11:49:28.491Z,5.47
2018-07-16T11:51:56.612Z,5.50
2018-07-16T11:54:24.718Z,6.40
2018-07-16T11:56:52.896Z,5.40
2018-07-16T11:59:21.052Z,5.27
2018-07-16T12:01:49.149Z,6.57
2018-07-16T12:04:17.233Z,4.93
2018-07-16T12:06:45.384Z,4.70
2018-07-16T12:09:13.519Z,4.40
2018-07-16T12:11:41.613Z,4.97
2018-07-16T12:14:09.774Z,4.70
2018-07-16T12:16:38.772Z,4.47
2018-07-16T12:19:06.969Z,4.60
2018-07-16T12:21:35.065Z,5.17
2018-07-16T12:24:03.221Z,5.03
2018-07-16T12:26:31.318Z,4.60
2018-07-16T12:28:59.447Z,4.67
2018-07-16T12:31:27.570Z,4.57
2018-07-16T12:33:55.686Z,4.63
2018-07-16T12:36:23.825Z,4.53
2018-07-16T12:38:51.934Z,4.37
2018-07-16T12:41:20.052Z,5.80
2018-07-16T12:43:48.154Z,5.70
2018-07-16T12:46:16.371Z,5.07
2018-07-16T12:48:44.535Z,4.20
2018-07-16T12:51:12.671Z,4.27
2018-07-16T12:53:40.781Z,4.50
2018-07-16T12:56:08.904Z,4.27
2018-07-16T12:58:37.150Z,4.43
2018-07-16T13:01:05.384Z,4.60
2018-07-16T13:03:33.592Z,4.23
2018-07-16T13:06:01.883Z,4.70
2018-07-16T13:08:29.990Z,4.40
2018-07-16T13:10:58.116Z,4.27
2018-07-16T13:13:26.252Z,4.33
2018-07-16T13:15:54.379Z,4.70
2018-07-16T13:18:22.498Z,4.43
2018-07-16T13:20:50.617Z,4.90
2018-07-16T13:23:18.775Z,3.90
2018-07-16T13:25:46.882Z,4.33
2018-07-16T13:28:14.990Z,4.77
2018-07-16T13:30:43.115Z,4.63
2018-07-16T13:33:11.218Z,4.30
2018-07-16T13:35:39.334Z,4.17
2018-07-16T13:38:07.739Z,4.17
2018-07-16T13:40:35.838Z,4.20
2018-07-16T13:43:03.950Z,4.37
2018-07-16T13:45:32.059Z,4.23
2018-07-16T13:48:00.173Z,4.53
2018-07-16T13:50:28.303Z,4.50
2018-07-16T13:52:56.444Z,4.80
2018-07-16T13:55:24.578Z,5.27
2018-07-16T13:57:52.710Z,4.70
2018-07-16T14:00:20.860Z,4.90
2018-07-16T14:02:48.984Z,4.17
2018-07-16T14:05:17.123Z,3.73
2018-07-16T14:07:45.313Z,4.07
2018-07-16T14:10:13.584Z,4.10
2018-07-16T14:12:41.699Z,4.37
2018-07-16T14:15:09.823Z,4.07
2018-07-16T14:17:37.934Z,4.30
2018-07-16T14:20:06.142Z,4.90
2018-07-16T14:22:34.303Z,5.40
2018-07-16T14:25:02.421Z,7.40
2018-07-16T14:27:30.603Z,4.57
2018-07-16T14:29:58.718Z,4.47
2018-07-16T14:32:26.899Z,5.13
2018-07-16T14:34:55.693Z,4.57
2018-07-16T14:37:23.822Z,4.20
2018-07-16T14:39:52.015Z,5.00
2018-07-16T14:42:20.086Z,5.77
2018-07-16T14:44:48.209Z,4.23
2018-07-16T14:47:16.310Z,3.97
2018-07-16T14:49:44.562Z,5.40
2018-07-16T14:52:12.685Z,4.37
2018-07-16T14:54:40.774Z,4.30
2018-07-16T14:57:08.979Z,5.87
2018-07-16T14:59:37.016Z,4.60
2018-07-16T15:02:05.174Z,4.90
2018-07-16T15:04:33.278Z,4.87
2018-07-16T15:07:01.421Z,5.03
2018-07-16T15:09:29.527Z,5.63
2018-07-16T15:11:58.100Z,4.50
2018-07-16T15:14:26.777Z,4.07
2018-07-16T15:16:54.918Z,4.77
2018-07-16T15:19:23.032Z,4.60
2018-07-16T15:21:52.229Z,4.90
2018-07-16T15:24:20.357Z,4.07
2018-07-16T15:26:48.499Z,4.60
2018-07-16T15:29:16.645Z,4.00
2018-07-16T15:31:44.742Z,4.60
2018-07-16T15:34:12.877Z,4.50
2018-07-16T15:36:41.039Z,4.00
2018-07-16T15:39:09.385Z,4.83
2018-07-16T15:41:37.498Z,4.43
2018-07-16T15:44:05.786Z,4.83
2018-07-16T15:46:34.066Z,5.33
2018-07-16T15:49:02.190Z,4.63
2018-07-16T15:51:30.326Z,4.70
2018-07-16T15:53:58.500Z,4.63
2018-07-16T15:56:26.613Z,3.77
2018-07-16T15:58:54.767Z,5.00
2018-07-16T16:01:22.878Z,4.80
2018-07-16T16:03:51.037Z,7.07
2018-07-16T16:06:19.217Z,5.80
2018-07-16T16:08:47.354Z,5.10
2018-07-16T16:11:15.495Z,5.03
2018-07-16T16:13:43.641Z,4.50
2018-07-16T16:16:11.784Z,5.23
2018-07-16T16:18:39.911Z,4.70
2018-07-16T16:21:08.031Z,5.00
2018-07-16T16:23:36.137Z,4.87
2018-07-16T16:26:04.259Z,5.43
2018-07-16T16:28:33.310Z,5.77
2018-07-16T16:31:01.438Z,4.63
2018-07-16T16:33:29.903Z,5.80
2018-07-16T16:35:58.284Z,4.77
2018-07-16T16:38:26.713Z,4.80
2018-07-16T16:40:55.199Z,5.60
2018-07-16T16:43:23.544Z,5.90
2018-07-16T16:45:51.810Z,4.93
2018-07-16T16:48:20.496Z,4.23
2018-07-16T16:50:49.201Z,4.40
2018-07-16T16:53:17.395Z,5.93
2018-07-16T16:55:45.538Z,6.20
2018-07-16T16:58:13.643Z,5.17
2018-07-16T17:00:41.791Z,5.67
2018-07-16T17:03:09.909Z,4.90
2018-07-16T17:05:38.271Z,5.20
2018-07-16T17:08:06.410Z,5.33
2018-07-16T17:10:34.526Z,5.40
2018-07-16T17:13:02.634Z,5.77
2018-07-16T17:15:30.749Z,4.10
2018-07-16T17:17:58.923Z,4.43
2018-07-16T17:20:27.395Z,4.23
2018-07-16T17:22:55.785Z,4.70
2018-07-16T17:25:24.247Z,5.20
2018-07-16T17:27:52.661Z,4.60
2018-07-16T17:30:21.229Z,5.80
2018-07-16T17:32:49.342Z,4.40
2018-07-16T17:35:17.491Z,5.10
2018-07-16T17:37:45.658Z,5.70
2018-07-16T17:40:13.840Z,4.50
2018-07-16T17:42:41.922Z,6.00
2018-07-16T17:45:10.039Z,6.63
2018-07-16T17:47:38.189Z,6.43
2018-07-16T17:50:07.415Z,5.00
2018-07-16T17:52:35.567Z,4.87
2018-07-16T17:55:03.886Z,5.53
2018-07-16T17:57:32.807Z,5.80
2018-07-16T18:00:01.870Z,7.67
2018-07-16T18:02:31.442Z,5.00
2018-07-16T18:05:00.820Z,5.57
2018-07-16T18:07:30.270Z,6.13
2018-07-16T18:10:00.263Z,5.37
2018-07-16T18:12:29.528Z,7.00
2018-07-16T18:14:58.542Z,7.47
2018-07-16T18:17:28.501Z,7.90
2018-07-16T18:19:58.437Z,4.90
2018-07-16T18:22:27.330Z,6.73
2018-07-16T18:24:55.934Z,6.13
2018-07-16T18:27:24.353Z,5.80
2018-07-16T18:29:52.518Z,6.50
2018-07-16T18:32:20.618Z,6.27
2018-07-16T18:34:48.848Z,5.00
2018-07-16T18:37:17.050Z,5.63
2018-07-16T18:39:45.242Z,5.37
2018-07-16T18:42:13.404Z,6.10
2018-07-16T18:44:41.557Z,5.30
2018-07-16T18:47:09.892Z,6.10
2018-07-16T18:49:38.831Z,5.53
2018-07-16T18:52:07.747Z,4.97
2018-07-16T18:54:36.859Z,4.60
2018-07-16T18:57:06.047Z,6.63
2018-07-16T18:59:35.845Z,7.40
2018-07-16T19:02:04.497Z,6.07
2018-07-16T19:04:33.169Z,6.57
2018-07-16T19:07:04.291Z,5.83
2018-07-16T19:09:33.599Z,5.77
2018-07-16T19:12:01.906Z,6.17
2018-07-16T19:14:31.246Z,5.80
2018-07-16T19:17:00.758Z,5.13
2018-07-16T19:19:30.309Z,6.20
2018-07-16T19:21:59.819Z,6.80
2018-07-16T19:24:29.077Z,6.67
2018-07-16T19:26:58.950Z,6.37
2018-07-16T19:29:27.807Z,6.70
2018-07-16T19:31:56.284Z,5.70
2018-07-16T19:34:24.429Z,5.60
2018-07-16T19:36:52.554Z,6.57
2018-07-16T19:39:20.738Z,5.33
2018-07-16T19:41:48.775Z,5.97
2018-07-16T19:44:16.882Z,6.40
2018-07-16T19:46:44.989Z,5.63
2018-07-16T19:49:13.230Z,6.23
2018-07-16T19:51:41.336Z,13.50
2018-07-16T19:54:09.514Z,10.03
2018-07-16T19:56:37.682Z,6.60
2018-07-16T19:59:05.987Z,6.83
2018-07-16T20:01:35.366Z,6.00
2018-07-16T20:04:03.786Z,6.67
2018-07-16T20:06:32.090Z,5.57
2018-07-16T20:09:00.859Z,5.33
2018-07-16T20:11:29.192Z,4.93
2018-07-16T20:13:57.795Z,6.30
2018-07-16T20:16:41.601Z,6.30
2018-07-16T20:19:09.964Z,6.13
2018-07-16T20:21:37.981Z,6.17
2018-07-16T20:24:06.427Z,6.80
2018-07-16T20:26:34.647Z,6.33
2018-07-16T20:29:03.009Z,6.10
2018-07-16T20:31:31.376Z,6.63
2018-07-16T20:33:59.599Z,5.63
2018-07-16T20:36:27.751Z,11.07
2018-07-16T20:38:57.293Z,12.10
2018-07-16T20:41:25.527Z,6.23
2018-07-16T20:43:53.674Z,6.30
2018-07-16T20:46:21.826Z,6.00
2018-07-16T20:48:50.028Z,5.00
2018-07-16T20:51:18.140Z,6.27
2018-07-16T20:53:46.302Z,9.10
2018-07-16T20:56:14.428Z,32.03
2018-07-16T20:58:42.643Z,10.60
2018-07-16T21:01:10.671Z,6.40
2018-07-16T21:03:38.983Z,6.50
2018-07-16T21:06:07.178Z,6.70
2018-07-16T21:08:35.733Z,5.80
2018-07-16T21:11:04.050Z,7.20
2018-07-16T21:13:32.549Z,6.70
2018-07-16T21:16:00.871Z,6.70
2018-07-16T21:18:30.274Z,7.20
2018-07-16T21:20:58.996Z,6.40
2018-07-16T21:23:27.813Z,6.37
2018-07-16T21:25:55.965Z,7.07
2018-07-16T21:28:24.094Z,6.60
2018-07-16T21:30:52.206Z,6.87
2018-07-16T21:33:20.327Z,6.43
2018-07-16T21:35:48.422Z,7.13
2018-07-16T21:38:16.593Z,8.00
2018-07-16T21:40:44.814Z,6.67
2018-07-16T21:43:12.835Z,6.40
2018-07-16T21:45:40.978Z,6.10
2018-07-16T21:48:09.225Z,6.57
2018-07-16T21:50:37.443Z,7.00
2018-07-16T21:53:05.656Z,6.70
2018-07-16T21:55:34.500Z,6.83
2018-07-16T21:58:03.485Z,5.90
2018-07-16T22:00:34.848Z,6.50
2018-07-16T22:03:04.482Z,6.37
2018-07-16T22:05:33.918Z,6.00
2018-07-16T22:08:03.527Z,6.27
2018-07-16T22:10:33.541Z,6.00
2018-07-16T22:13:02.442Z,6.37
2018-07-16T22:15:32.191Z,6.40
2018-07-16T22:18:01.397Z,6.27
2018-07-16T22:20:32.200Z,6.30
2018-07-16T22:23:01.734Z,6.27
2018-07-16T22:25:32.173Z,6.30
2018-07-16T22:28:01.522Z,6.40
2018-07-16T22:30:31.140Z,7.20
2018-07-16T22:33:01.632Z,6.03
2018-07-16T22:35:31.980Z,6.17
2018-07-16T22:38:02.489Z,6.93
2018-07-16T22:40:31.954Z,6.37
2018-07-16T22:43:02.221Z,6.10
2018-07-16T22:45:32.233Z,5.93
2018-07-16T22:48:01.848Z,6.20
2018-07-16T22:50:32.451Z,5.70
2018-07-16T22:53:01.668Z,6.40
2018-07-16T22:55:30.734Z,6.07
2018-07-16T22:57:59.970Z,6.10
2018-07-16T23:00:30.574Z,5.90
2018-07-16T23:03:00.147Z,6.67
2018-07-16T23:05:30.187Z,6.00
2018-07-16T23:08:01.275Z,6.37
2018-07-16T23:10:31.204Z,6.60
2018-07-16T23:13:01.129Z,6.00
2018-07-16T23:15:30.801Z,6.53
2018-07-16T23:18:01.246Z,6.23
2018-07-16T23:20:31.144Z,6.27
2018-07-16T23:23:00.305Z,6.30
2018-07-16T23:25:30.343Z,6.23
2018-07-16T23:27:59.441Z,5.60
2018-07-16T23:30:28.769Z,5.70
2018-07-16T23:32:58.122Z,6.70
2018-07-16T23:35:27.519Z,5.80
2018-07-16T23:37:56.229Z,5.73
2018-07-16T23:40:25.117Z,6.30
2018-07-16T23:42:54.233Z,6.40
2018-07-16T23:45:22.714Z,6.10
2018-07-16T23:47:50.881Z,6.00
2018-07-16T23:50:19.050Z,6.03
2018-07-16T23:52:47.146Z,6.93
2018-07-16T23:55:15.294Z,6.60
2018-07-16T23:57:43.413Z,6.67
